Time;durP1;ratioP1;P1;durP2;ratioP2;P2;SDS_P1;SDS_P2;PMS_P1;PMS_P2;Temp;Humidity;BMP_temperature;BMP_pressure;BME280_temperature;BME280_humidity;BME280_pressure;Samples;Min_cycle;Max_cycle;Signal;HPM_P1;HPM_P2
2023/04/19 00:01:04;;;;;;;27.17;19.95;;;10.70;67.30;;;;;;5045824;27;115034;-82
2023/04/19 00:03:31;;;;;;;30.92;21.48;;;10.70;67.40;;;;;;5045221;27;114684;-82
2023/04/19 00:05:58;;;;;;;27.75;19.52;;;10.70;67.50;;;;;;5045849;27;114573;-83
2023/04/19 00:08:26;;;;;;;30.17;20.45;;;10.70;67.50;;;;;;5045269;27;115044;-83
2023/04/19 00:10:53;;;;;;;28.65;21.02;;;10.70;67.50;;;;;;5045439;27;114947;-83
2023/04/19 00:13:22;;;;;;;27.98;21.40;;;10.70;67.50;;;;;;5043923;27;114724;-83
2023/04/19 00:15:49;;;;;;;28.90;21.45;;;10.70;67.50;;;;;;5045961;27;114260;-83
2023/04/19 00:18:17;;;;;;;27.15;20.88;;;10.70;67.60;;;;;;5028299;27;114580;-83
2023/04/19 00:20:44;;;;;;;30.10;22.98;;;10.70;67.80;;;;;;5043741;27;116163;-83
2023/04/19 00:23:11;;;;;;;28.52;21.83;;;10.70;67.90;;;;;;5036106;27;115166;-83
2023/04/19 00:25:38;;;;;;;28.55;21.83;;;10.60;68.10;;;;;;5028168;27;114464;-83
2023/04/19 00:28:05;;;;;;;27.80;22.25;;;10.60;68.20;;;;;;5028280;27;114318;-83
2023/04/19 00:30:32;;;;;;;29.98;23.30;;;10.60;68.40;;;;;;5043866;27;115130;-83
2023/04/19 00:33:00;;;;;;;29.20;22.27;;;10.60;68.50;;;;;;5027390;27;114620;-84
2023/04/19 00:35:27;;;;;;;31.95;23.48;;;10.60;68.60;;;;;;5044261;27;114600;-85
2023/04/19 00:37:54;;;;;;;31.08;25.10;;;10.60;68.70;;;;;;5010678;27;114866;-84
2023/04/19 00:40:21;;;;;;;31.15;24.10;;;10.60;68.80;;;;;;5026135;27;116979;-83
2023/04/19 00:42:49;;;;;;;32.97;25.67;;;10.60;69.00;;;;;;5043276;27;114819;-84
2023/04/19 00:45:16;;;;;;;31.65;25.63;;;10.60;69.10;;;;;;5044492;27;114669;-84
2023/04/19 00:47:43;;;;;;;34.95;26.25;;;10.60;69.20;;;;;;5045418;27;114472;-84
2023/04/19 00:50:11;;;;;;;36.03;26.63;;;10.60;69.10;;;;;;5043371;27;114946;-84
2023/04/19 00:52:38;;;;;;;36.05;28.17;;;10.60;69.20;;;;;;5009937;27;114874;-84
2023/04/19 00:55:05;;;;;;;35.28;26.98;;;10.60;69.20;;;;;;5011380;27;114258;-83
2023/04/19 00:57:35;;;;;;;37.45;28.42;;;10.60;69.40;;;;;;5028486;27;114451;-83
2023/04/19 01:00:05;;;;;;;35.90;27.05;;;10.60;69.70;;;;;;5050176;27;114472;-83
2023/04/19 01:02:33;;;;;;;37.80;29.83;;;10.60;69.70;;;;;;5058800;27;114251;-83
2023/04/19 01:05:00;;;;;;;37.67;29.90;;;10.50;69.80;;;;;;5049619;27;114461;-83
2023/04/19 01:07:27;;;;;;;37.70;28.77;;;10.60;69.80;;;;;;5044561;27;118318;-83
2023/04/19 01:09:55;;;;;;;43.35;31.48;;;10.50;69.80;;;;;;5055763;27;116831;-82
2023/04/19 01:12:22;;;;;;;36.08;28.40;;;10.50;70.00;;;;;;5037643;27;118450;-82
2023/04/19 01:14:49;;;;;;;40.80;31.30;;;10.50;70.10;;;;;;5069367;27;114464;-82
2023/04/19 01:17:17;;;;;;;42.85;31.20;;;10.40;70.40;;;;;;5065912;27;114592;-83
2023/04/19 01:19:45;;;;;;;39.08;30.50;;;10.30;70.70;;;;;;5047339;27;114884;-82
2023/04/19 01:22:20;;;;;;;40.08;30.35;;;10.30;70.80;;;;;;5047506;27;114821;-82
2023/04/19 01:24:47;;;;;;;;;;;10.30;71.20;;;;;;5065196;27;118101;-82
2023/04/19 01:27:16;;;;;;;42.92;32.53;;;10.20;70.00;;;;;;5065668;27;114221;-82
2023/04/19 01:29:43;;;;;;;48.67;35.60;;;10.20;71.40;;;;;;5063087;27;115519;-82
2023/04/19 01:32:11;;;;;;;48.47;36.58;;;10.20;71.50;;;;;;5046310;27;115013;-83
2023/04/19 01:34:39;;;;;;;45.50;35.40;;;10.30;71.50;;;;;;5050067;27;114312;-82
2023/04/19 01:37:06;;;;;;;43.63;35.08;;;10.40;71.50;;;;;;5026654;27;114461;-82
2023/04/19 01:39:33;;;;;;;50.10;37.75;;;10.40;71.70;;;;;;5044108;27;114967;-83
2023/04/19 01:42:00;;;;;;;45.67;34.30;;;10.40;71.70;;;;;;5026344;27;114580;-83
2023/04/19 01:44:29;;;;;;;51.15;36.13;;;10.50;71.80;;;;;;5044027;27;114470;-84
2023/04/19 01:46:57;;;;;;;46.70;35.25;;;10.50;71.90;;;;;;5060931;27;114444;-84
2023/04/19 01:49:24;;;;;;;52.30;37.38;;;10.50;72.00;;;;;;5045492;27;115486;-84
2023/04/19 01:51:51;;;;;;;49.42;37.13;;;10.40;71.90;;;;;;5045910;27;114569;-84
2023/04/19 01:54:19;;;;;;;50.15;36.33;;;10.40;71.90;;;;;;5064061;27;114154;-85
2023/04/19 01:56:48;;;;;;;48.72;36.92;;;10.50;72.00;;;;;;5063873;27;114248;-84
2023/04/19 01:59:16;;;;;;;41.40;33.10;;;10.40;72.00;;;;;;5045483;27;116249;-83
2023/04/19 02:01:43;;;;;;;47.80;36.80;;;10.40;72.00;;;;;;5062888;27;115300;-83
2023/04/19 02:04:10;;;;;;;50.38;36.45;;;10.40;72.10;;;;;;5063691;27;114308;-83
2023/04/19 02:06:38;;;;;;;49.42;38.80;;;10.40;72.20;;;;;;5012859;27;114651;-85
2023/04/19 02:09:05;;;;;;;55.22;40.67;;;10.40;72.30;;;;;;5064040;27;114899;-84
2023/04/19 02:11:32;;;;;;;51.05;39.13;;;10.40;72.40;;;;;;5063077;27;114738;-83
2023/04/19 02:14:00;;;;;;;53.95;39.97;;;10.40;72.40;;;;;;5046778;27;114554;-83
2023/04/19 02:16:27;;;;;;;52.97;40.60;;;10.40;72.40;;;;;;5048007;27;115127;-83
2023/04/19 02:18:55;;;;;;;47.67;37.88;;;10.40;72.40;;;;;;5042677;27;114093;-83
2023/04/19 02:21:22;;;;;;;52.80;38.88;;;10.30;72.40;;;;;;5028623;27;115193;-82
2023/04/19 02:23:49;;;;;;;55.72;39.38;;;10.30;72.50;;;;;;5046721;27;114554;-83
2023/04/19 02:26:16;;;;;;;52.22;38.50;;;10.20;72.70;;;;;;5046435;27;114591;-83
2023/04/19 02:28:43;;;;;;;58.38;43.17;;;10.20;72.60;;;;;;5011796;27;115973;-83
2023/04/19 02:31:11;;;;;;;54.10;39.90;;;10.30;72.80;;;;;;5045820;27;114753;-84
2023/04/19 02:33:38;;;;;;;54.85;39.45;;;10.30;72.90;;;;;;5029942;27;114410;-83
2023/04/19 02:36:06;;;;;;;51.63;40.15;;;10.30;72.90;;;;;;5048296;27;114684;-82
2023/04/19 02:38:34;;;;;;;53.35;40.03;;;10.30;73.00;;;;;;5045591;27;114945;-83
2023/04/19 02:41:03;;;;;;;52.20;37.53;;;10.30;73.10;;;;;;5045773;27;115272;-84
2023/04/19 02:43:30;;;;;;;54.38;40.08;;;10.30;73.10;;;;;;5046140;27;114320;-84
2023/04/19 02:45:57;;;;;;;56.08;40.22;;;10.30;73.00;;;;;;5046872;27;114964;-84
2023/04/19 02:48:25;;;;;;;55.28;42.33;;;10.40;73.00;;;;;;5045123;27;114824;-83
2023/04/19 02:50:52;;;;;;;53.50;40.75;;;10.40;73.10;;;;;;5045728;27;114613;-84
2023/04/19 02:53:20;;;;;;;53.53;38.50;;;10.40;73.10;;;;;;5045859;27;114509;-84
2023/04/19 02:55:48;;;;;;;56.97;41.65;;;10.40;73.10;;;;;;5067338;27;114080;-85
2023/04/19 02:58:18;;;;;;;51.53;39.90;;;10.40;73.20;;;;;;5066649;27;114881;-84
2023/04/19 03:01:02;;;;;;;50.88;38.75;;;10.40;73.10;;;;;;5066923;27;114868;-84
2023/04/19 03:03:29;;;;;;;46.58;35.35;;;10.40;73.10;;;;;;5050336;27;114138;-83
2023/04/19 03:05:57;;;;;;;46.15;37.22;;;10.40;73.10;;;;;;5066862;27;114470;-84
2023/04/19 03:08:24;;;;;;;51.10;39.42;;;10.40;73.10;;;;;;5049200;27;115144;-85
2023/04/19 03:10:52;;;;;;;48.15;37.53;;;10.30;73.10;;;;;;5067138;27;114916;-84
2023/04/19 03:13:19;;;;;;;52.53;37.13;;;10.40;73.10;;;;;;5066946;27;114422;-84
2023/04/19 03:15:48;;;;;;;55.20;40.17;;;10.40;73.10;;;;;;5050101;27;114563;-85
2023/04/19 03:18:19;;;;;;;52.83;39.53;;;10.50;73.10;;;;;;5065528;27;114866;-84
2023/04/19 03:20:46;;;;;;;54.10;40.10;;;10.50;73.00;;;;;;5065742;27;116560;-84
2023/04/19 03:23:13;;;;;;;51.05;37.95;;;10.50;73.00;;;;;;5067409;27;114314;-84
2023/04/19 03:25:41;;;;;;;58.33;42.13;;;10.50;73.00;;;;;;5049485;27;117448;-84
2023/04/19 03:28:19;;;;;;;59.80;41.80;;;10.40;73.00;;;;;;5065440;27;116173;-84
2023/04/19 03:31:05;;;;;;;54.13;39.90;;;10.40;73.00;;;;;;5072096;27;114547;-84
2023/04/19 03:33:32;;;;;;;58.25;42.85;;;10.40;73.00;;;;;;5052258;27;114338;-84
2023/04/19 03:35:59;;;;;;;61.47;42.65;;;10.40;73.10;;;;;;5066796;27;114451;-83
2023/04/19 03:38:26;;;;;;;54.88;42.58;;;10.40;73.10;;;;;;5064778;27;115005;-83
2023/04/19 03:40:56;;;;;;;51.83;40.25;;;10.40;73.10;;;;;;5032132;27;115055;-83
2023/04/19 03:43:25;;;;;;;54.55;40.83;;;10.40;73.20;;;;;;5066314;27;114332;-84
2023/04/19 03:45:53;;;;;;;52.17;38.95;;;10.30;73.20;;;;;;5041686;27;114523;-83
2023/04/19 03:48:20;;;;;;;54.75;41.40;;;10.30;73.20;;;;;;5027547;27;116711;-83
2023/04/19 03:50:48;;;;;;;54.65;41.42;;;10.20;73.40;;;;;;5044754;27;115136;-84
2023/04/19 03:53:18;;;;;;;57.20;43.13;;;10.30;73.40;;;;;;5028929;27;114693;-83
2023/04/19 03:55:45;;;;;;;59.47;44.38;;;10.30;73.40;;;;;;5028532;27;114447;-84
2023/04/19 03:58:12;;;;;;;56.28;42.10;;;10.20;73.50;;;;;;5044016;27;115623;-83
2023/04/19 04:00:50;;;;;;;61.55;44.90;;;10.20;73.60;;;;;;5036461;27;114656;-84
2023/04/19 04:03:18;;;;;;;55.85;42.75;;;10.20;73.50;;;;;;5045555;27;114197;-84
2023/04/19 04:05:47;;;;;;;61.28;44.85;;;10.20;73.50;;;;;;5045443;27;114089;-85
2023/04/19 04:08:14;;;;;;;63.60;46.05;;;10.20;73.50;;;;;;5027455;27;114395;-85
2023/04/19 04:10:41;;;;;;;62.50;46.50;;;10.20;73.30;;;;;;5011248;27;118542;-82
2023/04/19 04:13:09;;;;;;;59.08;41.40;;;10.20;73.40;;;;;;5046196;27;115745;-82
2023/04/19 04:15:44;;;;;;;58.22;42.42;;;10.20;73.40;;;;;;5048514;27;114452;-84
2023/04/19 04:18:12;;;;;;;54.55;39.65;;;10.10;73.50;;;;;;5064813;27;115208;-83
2023/04/19 04:20:40;;;;;;;57.25;42.05;;;10.00;73.50;;;;;;5065410;27;114669;-85
2023/04/19 04:23:09;;;;;;;51.30;38.58;;;10.00;73.60;;;;;;5066470;27;114119;-85
2023/04/19 04:25:42;;;;;;;52.75;40.22;;;9.90;73.60;;;;;;5047341;27;118333;-84
2023/04/19 04:28:13;;;;;;;55.28;39.95;;;9.90;73.60;;;;;;5044968;27;114918;-84
2023/04/19 04:30:40;;;;;;;57.17;41.55;;;9.90;73.60;;;;;;5027918;27;114706;-84
2023/04/19 04:33:10;;;;;;;55.08;38.03;;;9.90;73.70;;;;;;5045734;27;114465;-83
2023/04/19 04:35:40;;;;;;;50.50;37.47;;;9.90;73.70;;;;;;5045362;27;114389;-84
2023/04/19 04:38:12;;;;;;;57.20;39.50;;;9.90;73.80;;;;;;5011759;27;115001;-83
2023/04/19 04:40:53;;;;;;;49.33;36.40;;;9.90;73.70;;;;;;5043508;27;114690;-84
2023/04/19 04:43:21;;;;;;;51.10;37.05;;;9.90;73.80;;;;;;5010653;27;114550;-84
2023/04/19 04:45:49;;;;;;;48.90;35.78;;;10.00;73.80;;;;;;5011114;27;114620;-83
2023/04/19 04:48:16;;;;;;;46.28;34.40;;;10.00;73.60;;;;;;5042488;27;114729;-83
2023/04/19 04:50:43;;;;;;;51.17;35.88;;;10.00;73.50;;;;;;5043412;27;114699;-83
2023/04/19 04:53:11;;;;;;;49.25;35.05;;;9.90;73.70;;;;;;5044623;27;114442;-84
2023/04/19 04:55:41;;;;;;;49.90;35.72;;;9.90;73.70;;;;;;5044587;27;114406;-84
2023/04/19 04:58:08;;;;;;;50.63;36.65;;;9.80;73.70;;;;;;5063636;27;120081;-84
2023/04/19 05:00:54;;;;;;;46.20;34.13;;;9.90;73.80;;;;;;5022775;27;115326;-84
2023/04/19 05:03:23;;;;;;;57.33;42.40;;;9.80;73.70;;;;;;5027930;27;114331;-83
2023/04/19 05:05:56;;;;;;;55.53;42.20;;;9.70;73.60;;;;;;5045607;27;114566;-83
2023/04/19 05:08:25;;;;;;;59.25;44.38;;;9.70;73.70;;;;;;5047435;27;115961;-82
2023/04/19 05:10:56;;;;;;;60.58;45.65;;;9.80;73.80;;;;;;5063394;27;114595;-84
2023/04/19 05:13:27;;;;;;;58.47;42.35;;;9.70;73.70;;;;;;5047318;27;114440;-82
2023/04/19 05:15:55;;;;;;;55.22;39.97;;;9.80;73.80;;;;;;5064065;27;115410;-82
2023/04/19 05:18:24;;;;;;;49.38;35.47;;;9.80;73.90;;;;;;5063270;27;115526;-82
2023/04/19 05:20:51;;;;;;;51.25;36.33;;;9.80;73.90;;;;;;5037408;27;114836;-81
2023/04/19 05:23:23;;;;;;;53.00;36.92;;;9.80;73.70;;;;;;4994859;27;114303;-82
2023/04/19 05:25:51;;;;;;;58.45;40.92;;;9.70;73.70;;;;;;5026770;27;114603;-82
2023/04/19 05:28:20;;;;;;;59.10;42.78;;;9.70;73.60;;;;;;5026617;27;116123;-82
2023/04/19 05:31:07;;;;;;;41.45;31.20;;;9.70;73.50;;;;;;5044126;27;114536;-82
2023/04/19 05:33:43;;;;;;;29.50;22.00;;;9.60;73.10;;;;;;5011209;27;114520;-83
2023/04/19 05:36:10;;;;;;;27.08;21.50;;;9.50;72.80;;;;;;5043807;27;114198;-82
2023/04/19 05:38:37;;;;;;;26.67;20.92;;;9.30;72.60;;;;;;5031599;27;119757;-83
2023/04/19 05:41:05;;;;;;;29.73;21.33;;;9.10;72.90;;;;;;5045769;27;115229;-81
2023/04/19 05:43:32;;;;;;;32.35;22.95;;;9.00;73.30;;;;;;5062509;27;114358;-83
2023/04/19 05:46:03;;;;;;;36.88;25.23;;;8.90;73.70;;;;;;5043293;27;114218;-82
2023/04/19 05:48:30;;;;;;;44.78;31.75;;;8.80;74.10;;;;;;5038415;27;114890;-82
2023/04/19 05:51:09;;;;;;;39.35;26.25;;;8.80;74.50;;;;;;5026462;27;114956;-82
2023/04/19 05:53:54;;;;;;;31.33;22.85;;;8.70;74.50;;;;;;5029165;27;114352;-81
2023/04/19 05:56:25;;;;;;;29.58;20.13;;;8.70;74.70;;;;;;5054575;27;114615;-82
2023/04/19 05:58:55;;;;;;;23.17;16.60;;;8.70;74.90;;;;;;5029922;27;114910;-83
2023/04/19 06:01:23;;;;;;;29.77;20.13;;;8.70;74.10;;;;;;5033855;27;114739;-83
2023/04/19 06:03:52;;;;;;;22.25;17.40;;;8.70;74.30;;;;;;5037689;27;114276;-83
2023/04/19 06:06:21;;;;;;;22.63;17.08;;;8.70;74.10;;;;;;5031471;27;114179;-82
2023/04/19 06:08:49;;;;;;;23.05;17.77;;;8.70;74.10;;;;;;5047645;27;115428;-81
2023/04/19 06:11:20;;;;;;;22.48;16.67;;;8.70;74.50;;;;;;5045883;27;115102;-82
2023/04/19 06:13:55;;;;;;;20.83;16.17;;;8.80;74.20;;;;;;5041584;27;119015;-84
2023/04/19 06:16:23;;;;;;;21.27;16.40;;;8.80;73.90;;;;;;5050255;27;114151;-82
2023/04/19 06:18:51;;;;;;;23.77;19.30;;;8.80;73.10;;;;;;5029558;27;114976;-82
2023/04/19 06:21:18;;;;;;;20.88;16.23;;;8.70;72.50;;;;;;5047286;27;114720;-82
2023/04/19 06:23:45;;;;;;;22.88;18.50;;;8.70;72.70;;;;;;5048261;27;114190;-82
2023/04/19 06:26:12;;;;;;;23.73;18.50;;;8.70;72.90;;;;;;5049714;27;114249;-83
2023/04/19 06:28:42;;;;;;;22.42;17.55;;;8.60;73.40;;;;;;5047408;27;114929;-83
2023/04/19 06:31:12;;;;;;;25.30;18.48;;;8.70;73.20;;;;;;5047607;27;114800;-83
2023/04/19 06:33:40;;;;;;;23.85;19.83;;;8.70;73.60;;;;;;5048437;27;114605;-83
2023/04/19 06:36:09;;;;;;;24.52;19.00;;;8.80;73.50;;;;;;5046419;27;114251;-82
2023/04/19 06:38:37;;;;;;;24.95;19.65;;;8.90;73.40;;;;;;5047241;27;114920;-83
2023/04/19 06:41:04;;;;;;;25.63;20.33;;;9.00;73.10;;;;;;5045966;27;114748;-82
2023/04/19 06:43:34;;;;;;;25.10;21.45;;;8.90;73.20;;;;;;5045674;27;117802;-84
2023/04/19 06:46:05;;;;;;;30.80;24.17;;;9.00;73.10;;;;;;5046783;27;114899;-84
2023/04/19 06:48:33;;;;;;;26.25;19.60;;;9.10;73.10;;;;;;5029208;27;114902;-84
2023/04/19 06:51:01;;;;;;;23.40;17.08;;;9.10;72.60;;;;;;5046840;27;115042;-82
2023/04/19 06:53:29;;;;;;;20.13;16.15;;;9.00;72.70;;;;;;5044327;27;114204;-83
2023/04/19 06:56:02;;;;;;;20.50;16.00;;;9.00;72.60;;;;;;5035219;27;114468;-83
2023/04/19 06:58:33;;;;;;;17.52;13.32;;;9.10;72.30;;;;;;5035233;27;114869;-82
2023/04/19 07:01:03;;;;;;;17.65;14.98;;;9.10;72.10;;;;;;5045971;27;116316;-81
2023/04/19 07:03:31;;;;;;;20.30;15.77;;;9.20;72.00;;;;;;5030732;27;115021;-83
2023/04/19 07:06:02;;;;;;;22.25;16.40;;;9.20;71.90;;;;;;5029059;27;114208;-84
2023/04/19 07:08:33;;;;;;;21.33;16.92;;;9.20;71.90;;;;;;5045693;27;114866;-83
2023/04/19 07:11:16;;;;;;;21.70;16.23;;;9.30;71.80;;;;;;5045241;27;114736;-83
2023/04/19 07:13:44;;;;;;;19.73;16.30;;;9.30;71.60;;;;;;5030368;27;114518;-83
2023/04/19 07:16:13;;;;;;;24.02;17.85;;;9.40;71.70;;;;;;5028945;27;114904;-83
2023/04/19 07:18:41;;;;;;;23.95;18.52;;;9.40;71.80;;;;;;5043952;27;114862;-83
2023/04/19 07:21:09;;;;;;;31.42;22.88;;;9.50;72.20;;;;;;5055799;27;120543;-83
2023/04/19 07:23:37;;;;;;;30.75;22.80;;;9.50;72.00;;;;;;5046977;27;116535;-83
2023/04/19 07:26:04;;;;;;;31.48;23.73;;;9.60;72.20;;;;;;5046119;27;114465;-84
2023/04/19 07:28:31;;;;;;;30.52;23.88;;;9.60;72.30;;;;;;5011090;27;115572;-82
2023/04/19 07:30:59;;;;;;;32.05;24.02;;;9.60;72.40;;;;;;5041807;27;115021;-83
2023/04/19 07:33:27;;;;;;;27.85;22.05;;;9.60;72.00;;;;;;5028639;27;114346;-83
2023/04/19 07:35:56;;;;;;;31.13;21.73;;;9.70;72.10;;;;;;5046354;27;114158;-84
2023/04/19 07:38:24;;;;;;;32.78;25.40;;;9.70;72.10;;;;;;5042105;27;116072;-83
2023/04/19 07:40:51;;;;;;;32.20;25.25;;;9.70;71.80;;;;;;5009081;27;114628;-82
2023/04/19 07:43:19;;;;;;;31.52;22.83;;;9.70;71.90;;;;;;5059401;27;114381;-84
2023/04/19 07:45:53;;;;;;;32.92;25.30;;;9.70;71.90;;;;;;5066870;27;114396;-82
2023/04/19 07:48:21;;;;;;;31.17;23.17;;;9.70;72.00;;;;;;5031869;27;115672;-83
2023/04/19 07:51:25;;;;;;;;;;;;;;;;;;;;;
2023/04/19 07:54:20;;;;;;;34.53;26.90;;;9.70;71.90;;;;;;5043786;27;114346;-84
2023/04/19 07:56:48;;;;;;;41.83;31.42;;;9.50;72.10;;;;;;5046424;27;114253;-84
2023/04/19 07:59:15;;;;;;;43.10;33.42;;;9.60;71.80;;;;;;5027876;27;114834;-84
2023/04/19 08:01:42;;;;;;;38.78;30.63;;;9.70;71.80;;;;;;5046190;27;114980;-84
2023/04/19 08:04:11;;;;;;;38.33;28.83;;;9.70;71.60;;;;;;5044758;27;114697;-83
2023/04/19 08:06:39;;;;;;;31.95;24.40;;;9.70;71.50;;;;;;5037798;27;114459;-84
2023/04/19 08:09:07;;;;;;;32.60;26.98;;;9.60;71.40;;;;;;5044634;27;117505;-84
2023/04/19 08:11:41;;;;;;;32.72;25.58;;;9.60;71.70;;;;;;5045323;27;114712;-85
2023/04/19 08:14:12;;;;;;;28.25;23.42;;;9.50;71.80;;;;;;5030461;27;114249;-83
2023/04/19 08:17:03;;;;;;;30.30;21.70;;;9.50;71.80;;;;;;5024509;27;114185;-83
2023/04/19 08:19:34;;;;;;;26.98;23.27;;;9.40;71.80;;;;;;5045432;27;118060;-83
2023/04/19 08:22:03;;;;;;;27.52;23.58;;;9.30;72.00;;;;;;5046247;27;114670;-84
2023/04/19 08:24:31;;;;;;;28.55;23.95;;;9.20;72.30;;;;;;5017343;27;116222;-84
2023/04/19 08:26:58;;;;;;;27.63;23.52;;;9.20;72.10;;;;;;5014483;27;114316;-82
2023/04/19 08:29:26;;;;;;;26.35;22.45;;;9.10;72.10;;;;;;5045495;27;114732;-82
2023/04/19 08:31:53;;;;;;;27.08;22.83;;;9.10;72.20;;;;;;5045188;27;114526;-84
2023/04/19 08:34:21;;;;;;;27.15;22.92;;;9.00;72.20;;;;;;5032903;27;114565;-83
2023/04/19 08:36:48;;;;;;;29.58;24.38;;;8.90;72.50;;;;;;5066546;27;114252;-83
2023/04/19 08:39:31;;;;;;;27.02;21.65;;;8.90;73.20;;;;;;5050728;27;114955;-83
2023/04/19 08:42:09;;;;;;;29.08;23.05;;;9.00;73.10;;;;;;5045139;27;115103;-83
2023/04/19 08:45:01;;;;;;;23.17;19.88;;;9.00;73.40;;;;;;5048402;27;114167;-82
2023/04/19 08:47:48;;;;;;;24.38;19.95;;;9.00;73.00;;;;;;5019740;27;114270;-84
2023/04/19 08:50:26;;;;;;;21.48;18.45;;;9.10;73.10;;;;;;5047263;27;116804;-84
2023/04/19 08:53:05;;;;;;;23.77;17.95;;;9.00;72.80;;;;;;5046202;27;114863;-83
2023/04/19 08:55:57;;;;;;;18.15;14.75;;;9.00;72.90;;;;;;5030957;27;114341;-84
2023/04/19 08:58:38;;;;;;;18.10;14.70;;;9.00;72.20;;;;;;5030822;27;114257;-84
2023/04/19 09:01:26;;;;;;;15.45;13.30;;;8.90;72.50;;;;;;5016892;27;118494;-84
2023/04/19 09:04:06;;;;;;;14.85;11.85;;;8.90;72.40;;;;;;5049437;27;115204;-83
2023/04/19 09:06:53;;;;;;;16.63;12.77;;;8.90;72.00;;;;;;5051337;27;114421;-83
2023/04/19 09:09:21;;;;;;;17.38;14.63;;;8.90;72.10;;;;;;5064941;27;114491;-84
2023/04/19 09:11:51;;;;;;;14.88;12.23;;;8.90;71.80;;;;;;5042487;27;115328;-84
2023/04/19 09:14:20;;;;;;;13.95;11.73;;;8.90;71.20;;;;;;5043659;27;115114;-83
2023/04/19 09:16:50;;;;;;;11.75;10.40;;;8.80;71.20;;;;;;5044882;27;114443;-82
2023/04/19 09:19:17;;;;;;;12.77;9.20;;;8.80;70.50;;;;;;5046654;27;114240;-82
2023/04/19 09:21:52;;;;;;;11.93;9.40;;;8.80;70.80;;;;;;5045007;27;114909;-82
2023/04/19 09:24:37;;;;;;;12.43;9.15;;;8.80;71.10;;;;;;5045963;27;114692;-83
2023/04/19 09:27:11;;;;;;;13.70;8.85;;;8.90;70.40;;;;;;5026568;27;114335;-83
2023/04/19 09:29:38;;;;;;;16.63;10.90;;;8.90;69.90;;;;;;5030975;27;114223;-83
2023/04/19 09:32:06;;;;;;;17.55;12.52;;;8.90;70.30;;;;;;5048330;27;114918;-84
2023/04/19 09:34:33;;;;;;;19.15;15.70;;;9.00;71.00;;;;;;5046044;27;117510;-84
2023/04/19 09:37:13;;;;;;;31.73;26.02;;;9.10;71.20;;;;;;5043518;27;114491;-82
2023/04/19 09:39:59;;;;;;;35.47;27.85;;;9.20;70.70;;;;;;5045075;27;114593;-84
2023/04/19 09:42:47;;;;;;;39.35;31.40;;;9.00;70.90;;;;;;5048028;27;114804;-82
2023/04/19 09:45:17;;;;;;;39.60;30.02;;;9.10;70.80;;;;;;5048189;27;114652;-82
2023/04/19 09:48:04;;;;;;;41.75;32.63;;;8.90;71.00;;;;;;5048985;27;114122;-83
2023/04/19 09:50:33;;;;;;;44.10;32.47;;;8.90;70.80;;;;;;5031066;27;114368;-83
2023/04/19 09:53:50;;;;;;;37.88;29.48;;;8.80;71.00;;;;;;5046215;27;114531;-83
2023/04/19 09:56:17;;;;;;;40.63;31.05;;;8.80;71.00;;;;;;5024447;27;115717;-82
2023/04/19 09:58:44;;;;;;;41.42;32.47;;;8.70;71.20;;;;;;5046534;27;114340;-83
2023/04/19 10:01:21;;;;;;;40.97;32.47;;;8.70;71.10;;;;;;5042748;27;114351;-82
2023/04/19 10:03:48;;;;;;;44.70;35.00;;;8.70;71.00;;;;;;5047599;27;114942;-83
2023/04/19 10:06:18;;;;;;;49.17;35.67;;;8.70;70.90;;;;;;5047356;27;114606;-83
2023/04/19 10:08:49;;;;;;;47.13;37.60;;;8.60;71.00;;;;;;5048134;27;114453;-82
2023/04/19 10:11:17;;;;;;;49.72;35.25;;;8.60;70.90;;;;;;5047328;27;114553;-82
2023/04/19 10:13:45;;;;;;;46.08;34.42;;;8.60;70.60;;;;;;5029341;27;118757;-84
2023/04/19 10:16:12;;;;;;;50.70;37.45;;;8.60;70.60;;;;;;5028771;27;115293;-82
2023/04/19 10:18:48;;;;;;;48.22;35.80;;;8.50;70.60;;;;;;5047134;27;114191;-82
2023/04/19 10:21:16;;;;;;;52.65;40.90;;;8.40;70.60;;;;;;5012044;27;118094;-82
2023/04/19 10:23:43;;;;;;;50.25;36.38;;;8.30;70.50;;;;;;5046040;27;115546;-82
2023/04/19 10:26:10;;;;;;;50.50;37.97;;;8.30;70.60;;;;;;5046057;27;114668;-82
2023/04/19 10:28:37;;;;;;;50.80;36.25;;;8.30;70.60;;;;;;5047900;27;114198;-82
2023/04/19 10:31:05;;;;;;;49.72;36.72;;;8.20;70.40;;;;;;5052504;27;114235;-82
2023/04/19 10:33:36;;;;;;;54.25;39.05;;;8.20;70.50;;;;;;5067392;27;114974;-81
2023/04/19 10:36:03;;;;;;;47.28;36.35;;;8.10;70.60;;;;;;5067752;27;114682;-83
2023/04/19 10:38:57;;;;;;;55.15;37.72;;;8.00;70.60;;;;;;5050198;27;114570;-84
2023/04/19 10:41:26;;;;;;;53.37;38.33;;;7.90;70.60;;;;;;5066268;27;114437;-83
2023/04/19 10:43:56;;;;;;;53.75;39.15;;;7.80;70.90;;;;;;5062939;27;114524;-83
2023/04/19 10:46:24;;;;;;;52.78;38.97;;;7.80;71.10;;;;;;5067399;27;114672;-84
2023/04/19 10:48:59;;;;;;;65.80;48.60;;;7.70;71.20;;;;;;5067705;27;115998;-84
2023/04/19 10:51:35;;;;;;;57.90;41.85;;;7.70;71.40;;;;;;5067585;27;114204;-84
2023/04/19 10:54:09;;;;;;;57.83;44.03;;;7.60;71.20;;;;;;5051650;27;114455;-83
2023/04/19 10:56:38;;;;;;;50.33;38.42;;;7.60;71.40;;;;;;5042768;27;114637;-83
2023/04/19 10:59:12;;;;;;;48.35;36.05;;;7.60;71.30;;;;;;5048018;27;114198;-83
2023/04/19 11:01:50;;;;;;;55.08;39.70;;;7.50;71.40;;;;;;5046985;27;114151;-84
2023/04/19 11:04:31;;;;;;;59.38;42.03;;;7.50;71.50;;;;;;5046736;27;115549;-84
2023/04/19 11:07:02;;;;;;;56.75;40.00;;;7.50;71.50;;;;;;5046680;27;114570;-85
2023/04/19 11:09:41;;;;;;;61.95;44.75;;;7.40;71.50;;;;;;5048951;27;114198;-83
2023/04/19 11:12:11;;;;;;;51.97;37.90;;;7.40;71.70;;;;;;5016712;27;114704;-84
2023/04/19 11:14:40;;;;;;;48.67;36.42;;;7.50;71.90;;;;;;5014419;27;117497;-83
2023/04/19 11:17:19;;;;;;;46.45;33.78;;;7.50;71.80;;;;;;5047220;27;117413;-83
2023/04/19 11:19:53;;;;;;;43.97;32.90;;;7.60;71.80;;;;;;5031676;27;114309;-83
2023/04/19 11:22:33;;;;;;;42.47;33.65;;;7.60;71.60;;;;;;5045335;27;114285;-83
2023/04/19 11:25:20;;;;;;;39.80;30.33;;;7.60;71.50;;;;;;5027509;27;115012;-83
2023/04/19 11:27:51;;;;;;;40.22;33.10;;;7.60;71.60;;;;;;5028794;27;114985;-83
2023/04/19 11:30:29;;;;;;;46.50;33.42;;;7.60;71.50;;;;;;5012625;27;114342;-84
2023/04/19 11:32:57;;;;;;;42.97;33.85;;;7.60;71.70;;;;;;5008337;27;114836;-83
2023/04/19 11:35:26;;;;;;;41.60;30.92;;;7.50;71.60;;;;;;5039767;27;116021;-82
2023/04/19 11:37:55;;;;;;;42.33;32.22;;;7.60;71.40;;;;;;5032184;27;114897;-82
2023/04/19 11:40:26;;;;;;;39.05;30.50;;;7.60;71.50;;;;;;5028667;27;114384;-83
2023/04/19 11:43:03;;;;;;;40.13;30.08;;;7.60;71.10;;;;;;5013513;27;114672;-84
2023/04/19 11:45:35;;;;;;;46.67;35.83;;;7.60;71.30;;;;;;5019888;27;116223;-83
2023/04/19 11:48:15;;;;;;;43.60;32.85;;;7.50;71.30;;;;;;5047233;27;114841;-85
2023/04/19 11:50:42;;;;;;;39.95;32.00;;;7.50;71.30;;;;;;5055225;27;114565;-84
2023/04/19 11:53:22;;;;;;;41.65;30.77;;;7.50;71.40;;;;;;5011904;27;114565;-83
2023/04/19 11:55:57;;;;;;;40.55;29.92;;;7.50;71.40;;;;;;5044771;27;115684;-83
2023/04/19 11:58:31;;;;;;;40.80;30.10;;;7.50;71.80;;;;;;5043230;27;114335;-83
2023/04/19 12:01:06;;;;;;;38.42;30.73;;;7.40;71.60;;;;;;5045673;27;114247;-83
2023/04/19 12:03:35;;;;;;;36.95;28.00;;;7.50;71.50;;;;;;5044382;27;114672;-83
2023/04/19 12:06:02;;;;;;;37.97;28.40;;;7.40;71.40;;;;;;5041541;27;117535;-83
2023/04/19 12:08:43;;;;;;;40.72;30.02;;;7.30;71.50;;;;;;5043171;27;118646;-84
2023/04/19 12:11:10;;;;;;;36.60;29.45;;;7.40;71.50;;;;;;5046720;27;114912;-82
2023/04/19 12:13:39;;;;;;;40.85;31.05;;;7.20;71.60;;;;;;5048624;27;114373;-84
2023/04/19 12:16:07;;;;;;;40.25;31.33;;;7.20;71.80;;;;;;5044389;27;115394;-83
2023/04/19 12:18:50;;;;;;;42.47;30.85;;;7.20;72.00;;;;;;5046043;27;114627;-83
2023/04/19 12:21:44;;;;;;;44.45;35.05;;;7.30;71.80;;;;;;5028218;27;114378;-83
2023/04/19 12:24:13;;;;;;;40.80;32.72;;;7.20;71.80;;;;;;5041706;27;114791;-83
2023/04/19 12:26:54;;;;;;;46.45;35.83;;;7.20;72.10;;;;;;5045250;27;114980;-83
2023/04/19 12:29:26;;;;;;;;;;;7.20;72.30;;;;;;5044027;27;114629;-83
2023/04/19 12:31:53;;;;;;;41.00;31.15;;;7.20;71.90;;;;;;5048904;27;114458;-83
2023/04/19 12:34:20;;;;;;;39.53;30.17;;;7.20;72.40;;;;;;5055539;27;114310;-82
2023/04/19 12:36:50;;;;;;;36.58;28.08;;;7.20;72.20;;;;;;5047523;27;114343;-84
2023/04/19 12:39:17;;;;;;;37.17;28.35;;;7.20;72.10;;;;;;5061089;27;114573;-83
2023/04/19 12:41:47;;;;;;;35.13;28.98;;;7.20;72.10;;;;;;5045764;27;114480;-83
2023/04/19 12:44:14;;;;;;;38.22;30.27;;;7.20;72.00;;;;;;5043735;27;114474;-85